Fryeburg, Maine
Current Conditions -  °F | °C
As of 8:54 AM on Thursday 29 Jan 2015 (Local Time) from KIZG Reporting Station
Clear Clear  
Wind Chill: -2°   Ceiling: Unl
Heat Index: -2°   Visibility: 10mi
Dew Point: -6°   Wind: 0mph
Humidity: 83%   Direction: NA
Pressure: 30.28"   Gusts: NA
Location:  44.02°N, 70.98°W
Report Text: KIZG 291354Z AUTO 00000KT 10SM CLR M19/M21 A3028 RMK AO2 SLP267 T11891211
Loading
Personal Weather Stations






























Interactive Weather Map New forecast layout! Learn more

10-Day Weather Forecast

Advertisements
Track Severe Weather on mobile